Time;durP1;ratioP1;P1;durP2;ratioP2;P2;SDS_P1;SDS_P2;PMS_P1;PMS_P2;Temp;Humidity;BMP_temperature;BMP_pressure;BME280_temperature;BME280_humidity;BME280_pressure;Samples;Min_cycle;Max_cycle;Signal;HPM_P1;HPM_P2
2024/01/31 00:01:09;;;;;;;7.65;1.65;;;5.70;99.90;;;;;;5122233;27;20395;-75
2024/01/31 00:03:35;;;;;;;7.85;1.85;;;5.70;99.90;;;;;;5099539;28;20062;-75
2024/01/31 00:06:02;;;;;;;6.97;1.63;;;5.70;99.90;;;;;;5091935;28;20070;-75
2024/01/31 00:08:30;;;;;;;10.40;1.80;;;5.70;99.90;;;;;;5124031;27;20039;-75
2024/01/31 00:10:56;;;;;;;9.07;1.40;;;5.60;99.90;;;;;;5121757;27;20050;-75
2024/01/31 00:13:22;;;;;;;8.43;1.58;;;5.60;99.90;;;;;;5114995;27;20047;-74
2024/01/31 00:15:47;;;;;;;8.77;1.70;;;5.60;99.90;;;;;;5113787;27;20031;-76
2024/01/31 00:18:14;;;;;;;7.10;1.42;;;5.60;99.90;;;;;;5119151;28;20464;-75
2024/01/31 00:20:40;;;;;;;8.40;1.40;;;5.60;99.90;;;;;;5106960;27;20038;-77
2024/01/31 00:23:06;;;;;;;9.15;1.52;;;5.60;99.90;;;;;;5126269;27;20126;-76
2024/01/31 00:25:31;;;;;;;9.18;1.70;;;5.60;99.90;;;;;;5111047;28;20032;-73
2024/01/31 00:27:58;;;;;;;8.70;1.65;;;5.60;99.90;;;;;;5115520;27;20035;-74
2024/01/31 00:30:24;;;;;;;7.38;1.60;;;5.60;99.90;;;;;;5128354;27;20043;-74
2024/01/31 00:32:49;;;;;;;7.85;1.50;;;5.60;99.90;;;;;;5114603;27;20170;-72
2024/01/31 00:35:15;;;;;;;8.43;1.63;;;5.60;99.90;;;;;;5142842;27;20039;-73
2024/01/31 00:37:41;;;;;;;7.43;1.33;;;5.60;99.90;;;;;;5138564;27;20044;-74
2024/01/31 00:40:09;;;;;;;7.32;1.60;;;5.50;99.90;;;;;;5133653;27;20047;-73
2024/01/31 00:42:38;;;;;;;8.55;1.30;;;5.50;99.90;;;;;;5122852;27;20043;-74
2024/01/31 00:45:08;;;;;;;7.22;1.58;;;5.50;99.90;;;;;;5123319;27;20048;-75
2024/01/31 00:47:34;;;;;;;9.63;1.60;;;5.60;99.90;;;;;;5102114;28;20487;-74
2024/01/31 00:50:00;;;;;;;9.10;1.73;;;5.50;99.90;;;;;;5102989;28;20046;-74
2024/01/31 00:52:26;;;;;;;7.80;1.70;;;5.50;99.90;;;;;;5113993;27;20051;-77
2024/01/31 00:54:52;;;;;;;7.93;1.70;;;5.50;99.90;;;;;;5106860;28;20047;-75
2024/01/31 00:57:18;;;;;;;7.97;1.80;;;5.50;99.90;;;;;;5097853;28;20047;-76
2024/01/31 00:59:45;;;;;;;12.63;1.90;;;5.60;99.90;;;;;;5112943;27;20096;-76
2024/01/31 01:02:11;;;;;;;7.55;1.90;;;5.50;99.90;;;;;;5109860;28;20043;-75
2024/01/31 01:04:36;;;;;;;7.18;1.70;;;5.50;99.90;;;;;;5112490;27;20046;-76
2024/01/31 01:07:02;;;;;;;8.02;1.90;;;5.60;99.90;;;;;;5127062;27;20038;-75
2024/01/31 01:09:28;;;;;;;11.98;2.10;;;5.50;99.90;;;;;;5094215;28;20151;-76
2024/01/31 01:11:54;;;;;;;9.68;2.15;;;5.60;99.90;;;;;;5096055;28;20039;-75
2024/01/31 01:14:19;;;;;;;9.23;2.10;;;5.60;99.90;;;;;;5116821;27;20177;-75
2024/01/31 01:16:45;;;;;;;8.77;2.00;;;5.50;99.90;;;;;;5111092;27;20130;-75
2024/01/31 01:19:11;;;;;;;9.32;1.95;;;5.50;99.90;;;;;;5108208;27;20039;-76
2024/01/31 01:21:37;;;;;;;9.38;1.80;;;5.50;99.90;;;;;;5113415;27;20089;-75
2024/01/31 01:24:03;;;;;;;9.40;1.90;;;5.50;99.90;;;;;;5115120;27;20035;-75
2024/01/31 01:26:29;;;;;;;7.45;1.73;;;5.50;99.90;;;;;;5089927;28;20036;-75
2024/01/31 01:28:54;;;;;;;9.05;1.63;;;5.50;99.90;;;;;;5124488;27;20035;-75
2024/01/31 01:31:21;;;;;;;7.72;1.55;;;5.50;99.90;;;;;;5110889;28;20096;-75
2024/01/31 01:33:46;;;;;;;10.43;1.63;;;5.50;99.90;;;;;;5108089;28;20152;-75
2024/01/31 01:36:12;;;;;;;8.23;1.40;;;5.50;99.90;;;;;;5107352;28;20071;-76
2024/01/31 01:38:38;;;;;;;10.65;1.70;;;5.50;99.90;;;;;;5094912;28;20046;-75
2024/01/31 01:41:04;;;;;;;7.60;1.50;;;5.50;99.90;;;;;;5104900;28;20118;-76
2024/01/31 01:43:30;;;;;;;7.45;1.55;;;5.50;99.90;;;;;;5115737;27;20031;-75
2024/01/31 01:46:17;;;;;;;9.63;1.80;;;5.50;99.90;;;;;;5091510;27;20035;-74
2024/01/31 01:48:47;;;;;;;9.32;1.60;;;5.40;99.90;;;;;;5104804;28;20067;-75
2024/01/31 01:51:18;;;;;;;9.07;1.67;;;5.40;99.90;;;;;;5104990;27;20054;-75
2024/01/31 01:53:45;;;;;;;8.60;1.67;;;5.40;99.90;;;;;;5094557;28;20042;-75
2024/01/31 01:56:13;;;;;;;9.57;1.77;;;5.50;99.90;;;;;;5111714;27;20134;-75
2024/01/31 01:58:40;;;;;;;10.32;1.70;;;5.40;99.90;;;;;;5124367;27;20043;-77
2024/01/31 02:01:08;;;;;;;11.68;1.98;;;5.40;99.90;;;;;;5105885;27;20035;-75
2024/01/31 02:07:48;;;;;;;7.88;1.65;;;5.40;99.90;;;;;;5116697;27;20067;-75
2024/01/31 02:10:14;;;;;;;10.03;1.60;;;5.40;99.90;;;;;;5121698;27;20522;-75
2024/01/31 02:12:40;;;;;;;6.50;1.70;;;5.40;99.90;;;;;;5118443;27;20395;-75
2024/01/31 02:15:06;;;;;;;9.57;1.80;;;5.40;99.90;;;;;;5124560;27;20049;-75
2024/01/31 02:17:33;;;;;;;8.02;1.58;;;5.40;99.90;;;;;;5123709;27;20034;-75
2024/01/31 02:19:59;;;;;;;7.13;1.60;;;5.40;99.90;;;;;;5095400;27;20035;-75
2024/01/31 02:22:25;;;;;;;6.88;1.70;;;5.40;99.90;;;;;;5119500;27;20126;-75
2024/01/31 02:24:50;;;;;;;7.78;1.60;;;5.40;99.90;;;;;;5112608;27;20114;-75
2024/01/31 02:27:16;;;;;;;10.50;1.70;;;5.40;99.90;;;;;;5137480;27;20057;-76
2024/01/31 02:29:42;;;;;;;7.47;1.58;;;5.40;99.90;;;;;;5122134;27;20038;-75
2024/01/31 02:32:08;;;;;;;8.02;1.80;;;5.40;99.90;;;;;;5109726;28;20063;-75
2024/01/31 02:34:33;;;;;;;7.20;1.70;;;5.40;99.90;;;;;;5105543;27;20064;-75
2024/01/31 02:36:59;;;;;;;10.15;1.60;;;5.40;99.90;;;;;;5112728;27;20035;-75
2024/01/31 02:39:25;;;;;;;9.38;2.00;;;5.40;99.90;;;;;;5123135;27;20043;-75
2024/01/31 02:41:52;;;;;;;8.57;1.75;;;5.40;99.90;;;;;;5108309;27;20043;-75
2024/01/31 02:44:19;;;;;;;6.70;1.60;;;5.30;99.90;;;;;;5108322;27;20066;-75
2024/01/31 02:46:44;;;;;;;7.13;1.50;;;5.30;99.90;;;;;;5113736;27;20126;-75
2024/01/31 02:49:10;;;;;;;9.13;1.42;;;5.40;99.90;;;;;;5114281;28;20130;-77
2024/01/31 02:51:36;;;;;;;6.93;1.35;;;5.40;99.90;;;;;;5095614;28;20047;-75
2024/01/31 02:54:02;;;;;;;9.38;1.70;;;5.40;99.90;;;;;;5115771;27;20407;-75
2024/01/31 02:56:28;;;;;;;7.72;1.50;;;5.30;99.90;;;;;;5120879;28;20040;-75
2024/01/31 02:58:53;;;;;;;8.77;1.70;;;5.30;99.90;;;;;;5113829;27;20046;-75
2024/01/31 03:01:19;;;;;;;10.50;1.45;;;5.40;99.90;;;;;;5106370;27;20046;-75
2024/01/31 03:03:45;;;;;;;7.53;1.50;;;5.30;99.90;;;;;;5110074;27;20438;-75
2024/01/31 03:06:11;;;;;;;6.95;1.35;;;5.30;99.90;;;;;;5120334;27;20046;-75
2024/01/31 03:08:37;;;;;;;6.90;1.50;;;5.30;99.90;;;;;;5114640;27;20551;-75
2024/01/31 03:11:02;;;;;;;7.25;1.45;;;5.30;99.90;;;;;;5120064;27;20038;-75
2024/01/31 03:13:28;;;;;;;6.40;1.40;;;5.30;99.90;;;;;;5124857;27;20039;-75
2024/01/31 03:15:54;;;;;;;6.78;1.52;;;5.30;99.90;;;;;;5118912;27;20039;-75
2024/01/31 03:18:19;;;;;;;6.97;1.40;;;5.30;99.90;;;;;;5121263;27;20043;-75
2024/01/31 03:20:45;;;;;;;6.70;1.30;;;5.30;99.90;;;;;;5118033;27;20031;-73
2024/01/31 03:23:12;;;;;;;6.00;1.30;;;5.30;99.90;;;;;;5119498;27;20419;-75
2024/01/31 03:25:37;;;;;;;8.05;1.40;;;5.20;99.90;;;;;;5124040;27;20031;-75
2024/01/31 03:28:03;;;;;;;8.05;1.38;;;5.20;99.90;;;;;;5107321;27;20030;-75
2024/01/31 03:30:29;;;;;;;8.48;1.58;;;5.20;99.90;;;;;;5117274;27;20042;-75
2024/01/31 03:32:55;;;;;;;8.18;1.60;;;5.10;99.90;;;;;;5118621;27;20039;-75
2024/01/31 03:35:21;;;;;;;7.28;1.70;;;5.10;99.90;;;;;;5112239;27;20122;-75
2024/01/31 03:37:46;;;;;;;7.28;1.73;;;5.10;99.90;;;;;;5108622;27;20049;-75
2024/01/31 03:40:12;;;;;;;7.40;1.45;;;5.00;99.90;;;;;;5123599;27;20402;-75
2024/01/31 03:42:38;;;;;;;6.70;1.60;;;5.00;99.90;;;;;;5127266;27;20035;-75
2024/01/31 03:45:05;;;;;;;7.65;1.60;;;5.00;99.90;;;;;;5123780;27;20038;-75
2024/01/31 03:47:34;;;;;;;7.40;1.60;;;5.00;99.90;;;;;;5124193;27;20046;-75
2024/01/31 03:49:59;;;;;;;7.00;1.55;;;5.00;99.90;;;;;;5114927;27;20080;-75
2024/01/31 03:52:25;;;;;;;7.95;1.67;;;5.00;99.90;;;;;;5122633;27;20073;-75
2024/01/31 03:54:51;;;;;;;6.70;1.52;;;4.90;99.90;;;;;;5124296;27;20539;-75
2024/01/31 03:57:17;;;;;;;5.20;1.42;;;5.00;99.90;;;;;;5124540;27;20035;-75
2024/01/31 03:59:42;;;;;;;7.97;1.27;;;5.00;99.90;;;;;;5108452;27;20091;-75
2024/01/31 04:02:08;;;;;;;7.85;1.40;;;5.00;99.90;;;;;;5117433;27;20047;-75
2024/01/31 04:04:34;;;;;;;6.38;1.67;;;4.90;99.90;;;;;;5120693;27;20035;-75
2024/01/31 04:07:00;;;;;;;7.15;1.70;;;4.90;99.90;;;;;;5134483;27;20037;-75
2024/01/31 04:09:25;;;;;;;6.63;1.33;;;4.90;99.90;;;;;;5122390;27;20039;-75
2024/01/31 04:11:51;;;;;;;8.63;1.70;;;5.00;99.90;;;;;;5117552;27;20287;-75
2024/01/31 04:14:17;;;;;;;7.07;1.52;;;4.90;99.90;;;;;;5121730;27;20042;-74
2024/01/31 04:16:43;;;;;;;7.57;1.50;;;4.90;99.90;;;;;;5131886;27;20109;-75
2024/01/31 04:19:08;;;;;;;8.10;1.45;;;4.90;99.90;;;;;;5131716;27;20045;-75
2024/01/31 04:21:34;;;;;;;7.53;1.70;;;5.00;99.90;;;;;;5123584;27;20033;-75
2024/01/31 04:24:00;;;;;;;7.20;1.67;;;4.90;99.90;;;;;;5119413;27;20042;-75
2024/01/31 04:26:26;;;;;;;7.38;1.63;;;5.00;99.90;;;;;;5117773;27;20042;-75
2024/01/31 04:28:52;;;;;;;8.52;1.73;;;4.90;99.90;;;;;;5116561;27;20054;-75
2024/01/31 04:31:18;;;;;;;8.50;1.67;;;5.00;99.90;;;;;;5099508;27;20039;-75
2024/01/31 04:33:44;;;;;;;9.23;1.60;;;5.00;99.90;;;;;;5120548;27;20035;-75
2024/01/31 04:36:10;;;;;;;7.45;1.65;;;5.00;99.90;;;;;;5120026;27;20065;-75
2024/01/31 04:38:35;;;;;;;8.27;1.55;;;5.00;99.90;;;;;;5122227;27;20043;-74
2024/01/31 04:41:02;;;;;;;10.63;1.40;;;5.00;99.90;;;;;;5116033;27;20168;-75
2024/01/31 04:43:28;;;;;;;5.78;1.30;;;5.00;99.90;;;;;;5126141;27;20043;-75
2024/01/31 04:45:54;;;;;;;7.30;1.50;;;5.00;99.90;;;;;;5119553;27;20064;-73
2024/01/31 04:48:20;;;;;;;5.78;1.30;;;5.10;99.90;;;;;;5125343;27;20410;-72
2024/01/31 04:50:46;;;;;;;8.05;1.50;;;5.00;99.90;;;;;;5115162;27;20039;-73
2024/01/31 04:53:12;;;;;;;5.95;1.10;;;5.00;99.90;;;;;;5115438;27;20047;-74
2024/01/31 04:55:38;;;;;;;5.70;1.20;;;5.00;99.90;;;;;;5119230;27;20061;-73
2024/01/31 04:58:04;;;;;;;9.10;1.30;;;5.00;99.90;;;;;;5091297;27;20030;-73
2024/01/31 05:00:29;;;;;;;4.38;1.10;;;5.00;99.90;;;;;;5114209;27;20031;-74
2024/01/31 05:02:55;;;;;;;5.03;1.20;;;5.00;99.90;;;;;;5104418;27;20050;-74
2024/01/31 05:05:21;;;;;;;6.85;1.10;;;5.00;99.90;;;;;;5116463;27;20092;-73
2024/01/31 05:07:47;;;;;;;7.05;1.10;;;5.00;99.90;;;;;;5123977;27;20096;-75
2024/01/31 05:10:12;;;;;;;5.53;1.20;;;5.00;99.90;;;;;;5151624;27;20046;-73
2024/01/31 05:12:38;;;;;;;6.60;1.38;;;4.90;99.90;;;;;;5107632;27;20035;-73
2024/01/31 05:15:05;;;;;;;6.43;1.13;;;4.90;99.90;;;;;;5123909;27;20231;-73
2024/01/31 05:17:31;;;;;;;7.82;1.30;;;4.90;99.90;;;;;;5113374;27;20031;-73
2024/01/31 05:19:57;;;;;;;5.43;1.23;;;4.80;99.90;;;;;;5148995;27;20052;-74
2024/01/31 05:22:23;;;;;;;6.75;1.20;;;4.80;99.90;;;;;;5135256;27;20070;-73
2024/01/31 05:24:48;;;;;;;5.68;1.00;;;4.80;99.90;;;;;;5138470;27;20109;-73
2024/01/31 05:27:14;;;;;;;5.07;1.05;;;4.70;99.90;;;;;;5148324;27;20038;-73
2024/01/31 05:29:40;;;;;;;5.05;1.15;;;4.70;99.90;;;;;;5123306;27;20035;-73
2024/01/31 05:32:06;;;;;;;5.60;0.90;;;4.60;99.90;;;;;;5147684;27;20038;-74
2024/01/31 05:34:32;;;;;;;4.80;1.00;;;4.50;99.90;;;;;;5145833;27;20117;-73
2024/01/31 05:36:57;;;;;;;6.97;0.98;;;4.40;99.90;;;;;;5134153;27;20129;-73
2024/01/31 05:39:23;;;;;;;3.72;0.88;;;4.50;99.90;;;;;;5163921;27;20076;-73
2024/01/31 05:41:49;;;;;;;5.43;1.27;;;4.40;99.90;;;;;;5126387;27;20038;-73
2024/01/31 05:44:15;;;;;;;3.85;0.90;;;4.40;99.90;;;;;;5135004;27;20038;-73
2024/01/31 05:46:41;;;;;;;5.72;1.00;;;4.30;99.90;;;;;;5121124;27;20432;-73
2024/01/31 05:49:06;;;;;;;5.82;1.10;;;4.30;99.90;;;;;;5148382;27;20176;-73
2024/01/31 05:51:32;;;;;;;5.00;1.10;;;4.20;99.90;;;;;;5130515;27;20529;-74
2024/01/31 05:53:58;;;;;;;3.90;1.10;;;4.10;99.90;;;;;;5142886;27;20034;-73
2024/01/31 05:56:23;;;;;;;5.22;1.10;;;4.10;99.90;;;;;;5142958;27;20522;-73
2024/01/31 05:58:49;;;;;;;5.10;1.20;;;4.00;99.90;;;;;;5130859;27;20122;-73
2024/01/31 06:01:16;;;;;;;5.38;1.10;;;4.00;99.90;;;;;;5143944;27;20483;-73
2024/01/31 06:03:42;;;;;;;5.28;1.30;;;3.90;99.90;;;;;;5142176;27;20050;-73
2024/01/31 06:06:07;;;;;;;6.47;1.23;;;3.90;99.90;;;;;;5142025;27;20050;-73
2024/01/31 06:08:33;;;;;;;4.65;1.27;;;3.90;99.90;;;;;;5128960;27;20482;-73
2024/01/31 06:11:08;;;;;;;4.50;1.13;;;3.80;99.90;;;;;;5132636;27;20083;-73
2024/01/31 06:13:35;;;;;;;5.85;1.25;;;3.80;99.90;;;;;;5126184;27;20066;-73
2024/01/31 06:16:02;;;;;;;8.02;1.50;;;3.90;99.90;;;;;;5145266;27;20094;-73
2024/01/31 06:18:32;;;;;;;5.72;1.33;;;3.90;99.90;;;;;;5116476;27;20043;-73
2024/01/31 06:20:58;;;;;;;7.45;1.40;;;3.90;99.90;;;;;;5141355;27;20479;-73
2024/01/31 06:23:26;;;;;;;9.07;1.70;;;4.00;99.90;;;;;;5139539;27;20045;-73
2024/01/31 06:25:51;;;;;;;7.85;1.90;;;4.00;99.90;;;;;;5139659;27;20097;-74
2024/01/31 06:28:17;;;;;;;6.28;1.60;;;4.10;99.90;;;;;;5130584;27;20510;-74
2024/01/31 06:30:44;;;;;;;8.00;1.33;;;4.30;99.90;;;;;;5143839;27;20521;-74
2024/01/31 06:33:11;;;;;;;5.78;1.42;;;4.20;99.90;;;;;;5134786;27;20070;-74
2024/01/31 06:35:41;;;;;;;4.82;1.40;;;4.20;99.90;;;;;;5151780;27;20046;-75
2024/01/31 06:38:07;;;;;;;5.72;1.63;;;4.30;99.90;;;;;;5132723;27;20078;-74
2024/01/31 06:40:33;;;;;;;9.80;1.88;;;4.30;99.90;;;;;;5107217;27;20031;-69
2024/01/31 06:42:59;;;;;;;8.50;1.80;;;4.30;99.90;;;;;;5144185;27;20049;-70
2024/01/31 06:45:24;;;;;;;6.47;1.77;;;4.40;99.90;;;;;;5141110;27;20158;-69
2024/01/31 06:47:54;;;;;;;6.93;1.85;;;4.40;99.90;;;;;;5148748;27;20038;-70
2024/01/31 06:50:21;;;;;;;7.85;1.73;;;4.40;99.90;;;;;;5143907;27;20117;-70
2024/01/31 06:52:47;;;;;;;5.50;1.60;;;4.40;99.90;;;;;;5130514;27;20035;-69
2024/01/31 06:55:13;;;;;;;8.57;1.88;;;4.50;99.90;;;;;;5140313;27;20542;-70
2024/01/31 06:57:40;;;;;;;8.00;1.90;;;4.50;99.90;;;;;;5137333;27;20127;-70
2024/01/31 07:00:07;;;;;;;6.32;1.83;;;4.50;99.90;;;;;;5134529;27;20132;-70
2024/01/31 07:02:33;;;;;;;9.05;2.08;;;4.50;99.90;;;;;;5117441;27;20125;-70
2024/01/31 07:04:58;;;;;;;5.60;1.73;;;4.60;99.90;;;;;;5146517;27;20109;-69
2024/01/31 07:07:24;;;;;;;8.05;2.03;;;4.60;99.90;;;;;;5138856;27;20041;-70
2024/01/31 07:09:50;;;;;;;7.97;2.42;;;4.60;99.90;;;;;;5161431;27;20146;-70
2024/01/31 07:12:16;;;;;;;6.35;1.73;;;4.60;99.90;;;;;;5130786;27;20042;-69
2024/01/31 07:14:42;;;;;;;6.38;2.00;;;4.70;99.90;;;;;;5141315;27;20038;-70
2024/01/31 07:17:08;;;;;;;8.18;2.30;;;4.70;99.90;;;;;;5157185;27;20140;-70
2024/01/31 07:19:34;;;;;;;8.27;2.40;;;4.70;99.90;;;;;;5115517;27;20125;-70
2024/01/31 07:22:00;;;;;;;9.32;2.22;;;4.70;99.90;;;;;;5142529;27;20060;-70
2024/01/31 07:24:27;;;;;;;6.75;2.35;;;4.70;99.90;;;;;;5115677;27;20145;-70
2024/01/31 07:26:53;;;;;;;10.00;2.20;;;4.80;99.90;;;;;;5083225;27;20046;-70
2024/01/31 07:29:19;;;;;;;9.68;2.42;;;4.80;99.90;;;;;;5108863;27;20053;-70
2024/01/31 07:31:45;;;;;;;7.45;2.10;;;4.80;99.90;;;;;;5154448;27;20038;-70
2024/01/31 07:34:10;;;;;;;9.35;2.40;;;4.90;99.90;;;;;;5147210;27;20072;-69
2024/01/31 07:36:36;;;;;;;6.45;2.08;;;4.90;99.90;;;;;;5150085;27;20034;-70
2024/01/31 07:39:04;;;;;;;9.77;2.20;;;4.90;99.90;;;;;;5147040;27;20540;-70
2024/01/31 07:41:30;;;;;;;7.03;2.00;;;4.90;99.90;;;;;;5129910;27;20037;-70
2024/01/31 07:43:56;;;;;;;9.20;2.40;;;4.90;99.90;;;;;;5149899;27;20042;-70
2024/01/31 07:46:23;;;;;;;6.53;2.30;;;4.90;99.90;;;;;;5131474;27;20406;-70
2024/01/31 07:48:48;;;;;;;7.50;2.10;;;4.90;99.90;;;;;;5133246;27;20129;-70
2024/01/31 07:51:15;;;;;;;8.85;2.05;;;5.10;99.90;;;;;;5149531;27;20129;-69
2024/01/31 07:53:41;;;;;;;8.98;2.45;;;4.90;99.90;;;;;;5152298;27;20482;-69
2024/01/31 07:56:07;;;;;;;9.15;2.47;;;4.90;99.90;;;;;;5136395;27;20044;-70
2024/01/31 07:58:33;;;;;;;7.13;2.35;;;4.90;99.90;;;;;;5100420;27;20041;-70
2024/01/31 08:01:01;;;;;;;8.15;2.70;;;4.90;99.90;;;;;;5135044;27;20073;-70
2024/01/31 08:03:27;;;;;;;10.32;2.80;;;5.00;99.90;;;;;;5133699;27;20134;-69
2024/01/31 08:05:53;;;;;;;6.97;2.78;;;4.90;99.90;;;;;;5153734;27;20142;-69
2024/01/31 08:08:18;;;;;;;8.38;3.00;;;5.00;99.90;;;;;;5154125;27;20537;-69
2024/01/31 08:10:44;;;;;;;8.32;3.22;;;4.90;99.90;;;;;;5152764;27;20557;-69
2024/01/31 08:13:10;;;;;;;9.25;3.42;;;5.00;99.90;;;;;;5150240;27;20045;-69
2024/01/31 08:15:36;;;;;;;8.82;3.42;;;5.00;99.90;;;;;;5120666;27;20046;-69
2024/01/31 08:18:02;;;;;;;11.95;4.00;;;4.90;99.90;;;;;;5150862;27;20042;-69
2024/01/31 08:20:27;;;;;;;9.98;4.25;;;4.90;99.90;;;;;;5118059;27;20039;-69
2024/01/31 08:22:53;;;;;;;9.45;4.13;;;5.00;99.90;;;;;;5134588;27;20062;-69
2024/01/31 08:25:19;;;;;;;9.00;4.15;;;4.90;99.90;;;;;;5136404;27;20038;-69
2024/01/31 08:27:48;;;;;;;11.27;4.50;;;5.00;99.90;;;;;;5160148;27;20038;-69
2024/01/31 08:30:15;;;;;;;9.27;4.53;;;5.00;99.90;;;;;;5135700;27;20510;-69
2024/01/31 08:32:41;;;;;;;12.52;5.05;;;5.00;99.90;;;;;;5163238;27;20065;-69
2024/01/31 08:35:08;;;;;;;10.55;4.97;;;5.00;99.90;;;;;;5138012;27;20030;-69
2024/01/31 08:37:33;;;;;;;10.40;5.22;;;5.00;99.90;;;;;;5134819;27;20039;-69
2024/01/31 08:39:59;;;;;;;10.93;5.25;;;5.00;99.90;;;;;;5156848;27;20034;-70
2024/01/31 08:42:28;;;;;;;11.23;5.38;;;5.00;99.90;;;;;;5116271;27;20041;-69
2024/01/31 08:44:55;;;;;;;10.93;5.70;;;5.00;99.90;;;;;;5151768;27;20102;-69
2024/01/31 08:47:21;;;;;;;10.45;5.43;;;5.00;99.90;;;;;;5147798;27;20576;-69
2024/01/31 08:49:48;;;;;;;11.73;6.22;;;5.00;99.90;;;;;;5164686;27;20118;-70
2024/01/31 08:52:14;;;;;;;11.30;5.72;;;5.10;99.90;;;;;;5135027;27;20042;-70
2024/01/31 08:54:40;;;;;;;10.45;5.75;;;5.10;99.90;;;;;;5151215;27;20037;-70
2024/01/31 08:57:05;;;;;;;12.90;5.85;;;5.20;99.90;;;;;;5150588;27;20049;-70
2024/01/31 08:59:31;;;;;;;11.98;5.75;;;5.20;99.90;;;;;;5148293;27;20255;-69
2024/01/31 09:01:57;;;;;;;10.70;5.55;;;5.20;99.90;;;;;;5150237;27;20427;-76
2024/01/31 09:04:23;;;;;;;11.77;5.30;;;5.20;99.90;;;;;;5135495;27;20085;-76
2024/01/31 09:06:48;;;;;;;9.07;4.97;;;5.20;99.90;;;;;;5160477;27;20030;-75
2024/01/31 09:09:15;;;;;;;12.95;4.82;;;5.20;99.90;;;;;;5153789;27;20049;-74
2024/01/31 09:11:41;;;;;;;9.18;4.47;;;5.30;99.90;;;;;;5150493;27;20038;-74
2024/01/31 09:14:07;;;;;;;10.38;4.30;;;5.30;99.90;;;;;;5136630;27;20053;-77
2024/01/31 09:16:34;;;;;;;8.18;4.72;;;5.40;99.90;;;;;;5132950;27;20087;-74
2024/01/31 09:19:00;;;;;;;9.52;4.25;;;5.40;99.90;;;;;;5149842;27;20042;-75
2024/01/31 09:21:27;;;;;;;10.52;4.40;;;5.40;99.90;;;;;;5150725;27;20038;-74
2024/01/31 09:23:55;;;;;;;8.52;4.25;;;5.50;99.90;;;;;;5117200;27;20431;-74
2024/01/31 09:26:21;;;;;;;9.48;4.53;;;5.60;99.90;;;;;;5119459;27;20046;-76
2024/01/31 09:28:47;;;;;;;8.20;4.50;;;5.60;99.90;;;;;;5162954;27;20094;-80
2024/01/31 09:31:23;;;;;;;7.88;4.20;;;5.60;99.90;;;;;;5095688;27;20129;-74
2024/01/31 09:33:51;;;;;;;8.95;4.03;;;5.70;99.90;;;;;;5149302;27;20490;-76
2024/01/31 09:36:17;;;;;;;9.60;4.50;;;5.70;99.90;;;;;;5131659;27;20125;-73
2024/01/31 09:38:44;;;;;;;9.60;4.55;;;5.80;99.90;;;;;;5132447;27;20455;-74
2024/01/31 09:41:10;;;;;;;8.27;4.25;;;5.80;99.90;;;;;;5138318;27;20402;-74
2024/01/31 09:43:37;;;;;;;10.48;4.43;;;5.80;99.90;;;;;;5137047;27;20034;-74
2024/01/31 09:46:04;;;;;;;9.35;4.28;;;5.80;99.90;;;;;;5150772;27;20517;-72
2024/01/31 09:48:31;;;;;;;9.80;4.80;;;5.80;99.90;;;;;;5132540;27;20042;-73
2024/01/31 09:51:02;;;;;;;10.35;4.90;;;5.90;99.90;;;;;;5148308;27;20064;-74
2024/01/31 09:53:33;;;;;;;11.93;4.53;;;5.90;99.90;;;;;;5149116;27;20045;-74
2024/01/31 09:56:00;;;;;;;10.73;5.20;;;5.90;99.90;;;;;;5145555;27;20042;-74
2024/01/31 09:58:26;;;;;;;9.80;4.90;;;5.90;99.90;;;;;;5146229;27;20116;-74
2024/01/31 10:00:53;;;;;;;10.85;4.93;;;6.00;99.90;;;;;;5149352;27;20483;-74
2024/01/31 10:03:19;;;;;;;7.72;4.80;;;6.00;99.90;;;;;;5130572;27;20046;-74
2024/01/31 10:05:44;;;;;;;8.82;4.90;;;6.00;99.90;;;;;;5144074;27;20407;-74
2024/01/31 10:08:11;;;;;;;10.27;4.93;;;6.10;99.90;;;;;;5149469;27;20064;-74
2024/01/31 10:10:37;;;;;;;10.15;4.85;;;6.10;99.90;;;;;;5146168;27;20405;-74
2024/01/31 10:13:06;;;;;;;8.65;4.38;;;6.10;99.90;;;;;;5115587;27;20500;-74
2024/01/31 10:15:32;;;;;;;8.48;4.40;;;6.20;99.90;;;;;;5157783;27;20424;-74
2024/01/31 10:17:58;;;;;;;8.05;4.50;;;6.10;99.90;;;;;;5150990;27;20043;-74
2024/01/31 10:20:25;;;;;;;9.55;4.80;;;6.20;99.90;;;;;;5148376;27;20042;-74
2024/01/31 10:22:50;;;;;;;8.38;4.60;;;6.20;99.90;;;;;;5152361;27;20026;-74
2024/01/31 10:25:18;;;;;;;11.57;5.03;;;6.20;99.90;;;;;;5145990;27;20095;-74
2024/01/31 10:27:47;;;;;;;8.68;4.82;;;6.20;99.90;;;;;;5146509;27;20035;-74
2024/01/31 10:30:14;;;;;;;8.15;4.50;;;6.20;99.90;;;;;;5147936;27;20368;-74
2024/01/31 10:32:41;;;;;;;9.20;4.70;;;6.20;99.90;;;;;;5131667;27;20115;-74
2024/01/31 10:35:07;;;;;;;8.45;5.03;;;6.30;99.90;;;;;;5133772;27;20557;-75
2024/01/31 10:37:37;;;;;;;7.28;4.55;;;6.30;99.90;;;;;;5145174;27;20038;-74
2024/01/31 10:40:06;;;;;;;8.13;4.85;;;6.30;99.90;;;;;;5146472;27;20037;-74
2024/01/31 10:42:32;;;;;;;7.60;5.13;;;6.40;99.90;;;;;;5150091;27;20066;-75
2024/01/31 10:44:58;;;;;;;8.05;4.97;;;6.40;99.90;;;;;;5147357;27;20545;-74
2024/01/31 10:47:24;;;;;;;9.75;4.78;;;6.40;99.90;;;;;;5148013;27;20031;-74
2024/01/31 10:49:50;;;;;;;8.45;5.05;;;6.40;99.90;;;;;;5135373;27;20046;-74
2024/01/31 10:52:20;;;;;;;10.18;5.35;;;6.50;99.90;;;;;;5151077;27;20606;-74
2024/01/31 10:54:58;;;;;;;9.02;5.07;;;6.50;99.90;;;;;;5148350;27;20038;-74
2024/01/31 10:57:24;;;;;;;8.75;5.60;;;6.50;99.90;;;;;;5145824;27;20049;-74
2024/01/31 10:59:49;;;;;;;9.70;5.40;;;6.50;99.90;;;;;;5140689;27;20482;-74
2024/01/31 11:02:16;;;;;;;9.20;5.60;;;6.50;99.90;;;;;;5160132;27;20046;-75
2024/01/31 11:04:45;;;;;;;8.13;5.50;;;6.60;99.90;;;;;;5144958;27;20050;-74
2024/01/31 11:07:20;;;;;;;9.10;5.55;;;6.60;99.90;;;;;;5112775;27;20038;-74
2024/01/31 11:09:47;;;;;;;11.07;6.65;;;6.60;99.90;;;;;;5132530;27;20129;-74
2024/01/31 11:12:15;;;;;;;9.70;5.93;;;6.60;99.90;;;;;;5148244;27;20049;-74
2024/01/31 11:14:43;;;;;;;10.27;6.20;;;6.70;99.90;;;;;;5146554;27;20064;-74
2024/01/31 11:17:19;;;;;;;9.98;6.45;;;6.70;99.90;;;;;;5134395;27;20107;-75
2024/01/31 11:19:59;;;;;;;9.25;6.90;;;6.70;99.90;;;;;;5147439;27;20046;-75
2024/01/31 11:22:26;;;;;;;9.55;6.85;;;6.70;99.90;;;;;;5144993;27;20105;-75
2024/01/31 11:24:54;;;;;;;10.48;7.20;;;6.70;99.90;;;;;;5140737;27;20030;-75
2024/01/31 11:27:21;;;;;;;10.52;7.22;;;6.70;99.90;;;;;;5148744;27;20035;-75
2024/01/31 11:29:50;;;;;;;11.05;7.55;;;6.60;99.90;;;;;;5133357;27;20046;-74
2024/01/31 11:32:23;;;;;;;14.48;8.93;;;6.60;99.90;;;;;;5150077;27;20095;-74
2024/01/31 11:34:59;;;;;;;11.82;8.30;;;6.70;99.90;;;;;;5152879;27;20538;-75
2024/01/31 11:37:25;;;;;;;10.85;8.65;;;6.70;99.90;;;;;;5121048;27;20498;-76
2024/01/31 11:39:51;;;;;;;13.45;9.25;;;6.60;99.90;;;;;;5150585;27;20042;-75
2024/01/31 11:42:17;;;;;;;10.00;7.68;;;6.70;99.90;;;;;;5120696;27;20039;-75
2024/01/31 11:44:43;;;;;;;12.38;8.60;;;6.70;99.90;;;;;;5132394;27;20129;-75
2024/01/31 11:47:09;;;;;;;11.77;8.90;;;6.70;99.90;;;;;;5149755;27;20121;-75
2024/01/31 11:49:35;;;;;;;10.45;7.80;;;6.70;99.90;;;;;;5125036;27;20038;-75
2024/01/31 11:52:01;;;;;;;11.43;7.78;;;6.70;99.90;;;;;;5121897;27;20113;-75
2024/01/31 11:54:28;;;;;;;10.50;7.20;;;6.70;99.90;;;;;;5136959;27;20058;-76
2024/01/31 11:56:54;;;;;;;10.23;7.57;;;6.70;99.90;;;;;;5101957;27;20039;-75
2024/01/31 11:59:21;;;;;;;10.63;6.53;;;6.80;99.90;;;;;;5152599;27;20115;-75
2024/01/31 12:01:47;;;;;;;10.30;6.53;;;6.80;99.90;;;;;;5146861;27;20075;-74
2024/01/31 12:04:13;;;;;;;9.43;6.88;;;6.80;99.90;;;;;;5145075;27;20051;-75
2024/01/31 12:06:39;;;;;;;9.35;5.95;;;6.80;99.90;;;;;;5133496;27;20042;-76
2024/01/31 12:09:04;;;;;;;10.55;6.25;;;6.90;99.90;;;;;;5127628;27;20129;-75
2024/01/31 12:11:32;;;;;;;8.88;6.07;;;7.00;99.90;;;;;;5119391;27;20031;-75
2024/01/31 12:13:58;;;;;;;9.45;6.28;;;7.00;99.90;;;;;;5132752;27;20038;-73
2024/01/31 12:16:24;;;;;;;8.82;6.22;;;7.00;99.90;;;;;;5136230;27;20082;-76
2024/01/31 12:19:00;;;;;;;7.93;6.03;;;7.10;99.90;;;;;;5145807;27;20100;-75
2024/01/31 12:21:26;;;;;;;9.10;6.30;;;7.10;99.90;;;;;;5137535;27;20049;-75
2024/01/31 12:23:52;;;;;;;9.05;6.38;;;7.20;99.90;;;;;;5135105;27;20038;-76
2024/01/31 12:26:18;;;;;;;10.15;6.20;;;7.20;99.90;;;;;;5119228;27;20072;-76
2024/01/31 12:29:04;;;;;;;8.80;6.45;;;7.20;99.90;;;;;;5137160;27;20931;-76
2024/01/31 12:31:30;;;;;;;9.55;7.45;;;7.20;99.90;;;;;;5157449;27;20042;-76
2024/01/31 12:33:56;;;;;;;10.02;7.20;;;7.20;99.90;;;;;;5118474;27;20049;-76
2024/01/31 12:36:22;;;;;;;10.68;7.05;;;7.20;99.90;;;;;;5116805;27;20050;-76
2024/01/31 12:38:47;;;;;;;10.15;7.28;;;7.20;99.90;;;;;;5149514;27;20406;-75
2024/01/31 12:41:13;;;;;;;10.02;7.20;;;7.20;99.90;;;;;;5137316;27;20034;-76
2024/01/31 12:43:39;;;;;;;11.45;7.65;;;7.30;99.90;;;;;;5134062;27;20030;-76
2024/01/31 12:46:05;;;;;;;10.45;8.20;;;7.30;99.90;;;;;;5136500;27;20053;-76
2024/01/31 12:48:31;;;;;;;10.20;8.32;;;7.20;99.90;;;;;;5150850;27;20126;-76
2024/01/31 12:50:56;;;;;;;11.27;8.25;;;7.20;99.90;;;;;;5148810;27;20042;-76
2024/01/31 12:53:23;;;;;;;10.10;8.20;;;7.20;99.90;;;;;;5113861;27;20042;-76
2024/01/31 12:55:50;;;;;;;11.63;8.60;;;7.20;99.90;;;;;;5120044;27;20090;-76